createdAt,value
2018-04-08T00:02:03.026Z,71.70
2018-04-08T00:04:30.501Z,71.70
2018-04-08T00:06:57.968Z,71.70
2018-04-08T00:09:25.475Z,71.70
2018-04-08T00:11:52.942Z,71.80
2018-04-08T00:14:20.391Z,71.70
2018-04-08T00:16:47.840Z,72.00
2018-04-08T00:19:15.290Z,72.10
2018-04-08T00:21:43.559Z,71.90
2018-04-08T00:24:11.785Z,71.90
2018-04-08T00:26:39.243Z,71.90
2018-04-08T00:29:06.698Z,72.00
2018-04-08T00:31:34.169Z,71.60
2018-04-08T00:34:01.624Z,71.90
2018-04-08T00:36:29.878Z,71.60
2018-04-08T00:38:57.367Z,71.70
2018-04-08T00:41:24.832Z,71.40
2018-04-08T00:43:52.304Z,71.10
2018-04-08T00:46:19.749Z,71.50
2018-04-08T00:48:47.194Z,71.70
2018-04-08T00:51:14.648Z,71.90
2018-04-08T00:53:42.092Z,71.60
2018-04-08T00:56:09.583Z,71.90
2018-04-08T00:58:37.042Z,71.90
2018-04-08T01:01:04.513Z,72.10
2018-04-08T01:03:31.955Z,73.00
2018-04-08T01:06:00.169Z,72.40
2018-04-08T01:08:27.644Z,72.40
2018-04-08T01:10:55.091Z,72.00
2018-04-08T01:13:22.564Z,72.40
2018-04-08T01:15:50.047Z,71.90
2018-04-08T01:18:17.524Z,71.80
2018-04-08T01:20:45.759Z,71.40
2018-04-08T01:23:13.214Z,71.40
2018-04-08T01:25:40.681Z,71.10
2018-04-08T01:28:08.883Z,71.20
2018-04-08T01:30:37.104Z,71.30
2018-04-08T01:33:04.565Z,71.10
2018-04-08T01:35:32.053Z,71.20
2018-04-08T01:37:59.513Z,72.40
2018-04-08T01:40:26.986Z,71.20
2018-04-08T01:42:55.204Z,70.60
2018-04-08T01:45:22.663Z,70.50
2018-04-08T01:47:50.130Z,70.50
2018-04-08T01:50:17.592Z,70.40
2018-04-08T01:52:45.051Z,69.90
2018-04-08T01:55:12.537Z,70.00
2018-04-08T01:57:39.993Z,70.10
2018-04-08T02:00:08.310Z,69.80
2018-04-08T02:02:35.771Z,69.60
2018-04-08T02:05:03.212Z,69.20
2018-04-08T02:07:30.671Z,69.40
2018-04-08T02:09:58.136Z,69.40
2018-04-08T02:12:25.592Z,69.70
2018-04-08T02:14:53.058Z,69.50
2018-04-08T02:17:20.525Z,69.20
2018-04-08T02:19:47.980Z,69.40
2018-04-08T02:22:15.722Z,69.50
2018-04-08T02:24:43.178Z,70.10
2018-04-08T02:27:10.646Z,70.20
2018-04-08T02:29:38.107Z,70.30
2018-04-08T02:32:05.566Z,70.30
2018-04-08T02:34:33.013Z,70.20
2018-04-08T02:37:00.495Z,70.10
2018-04-08T02:39:27.923Z,70.30
2018-04-08T02:41:55.864Z,70.10
2018-04-08T02:44:23.308Z,69.70
2018-04-08T02:46:51.519Z,70.90
2018-04-08T02:49:18.988Z,69.90
2018-04-08T02:51:47.091Z,70.00
2018-04-08T02:54:14.544Z,70.10
2018-04-08T02:56:41.987Z,70.10
2018-04-08T02:59:09.475Z,70.10
2018-04-08T03:01:36.945Z,70.40
2018-04-08T03:04:05.155Z,70.90
2018-04-08T03:06:32.605Z,70.80
2018-04-08T03:09:00.084Z,71.10
2018-04-08T03:11:27.542Z,71.10
2018-04-08T03:13:54.988Z,71.10
2018-04-08T03:16:22.469Z,71.20
2018-04-08T03:18:49.910Z,71.50
2018-04-08T03:21:17.373Z,71.40
2018-04-08T03:23:44.843Z,71.90
2018-04-08T03:26:12.284Z,72.10
2018-04-08T03:28:39.724Z,72.30
2018-04-08T03:31:07.207Z,72.10
2018-04-08T03:33:34.650Z,72.50
2018-04-08T03:36:02.091Z,73.00
2018-04-08T03:38:29.547Z,72.90
2018-04-08T03:40:57.029Z,73.00
2018-04-08T03:43:24.492Z,72.90
2018-04-08T03:45:51.932Z,72.90
2018-04-08T03:48:19.413Z,72.90
2018-04-08T03:50:46.864Z,72.90
2018-04-08T03:53:14.344Z,72.90
2018-04-08T03:55:41.783Z,73.40
2018-04-08T03:58:09.237Z,73.50
2018-04-08T04:00:36.696Z,73.90
2018-04-08T04:03:04.149Z,74.00
2018-04-08T04:05:31.612Z,74.00
2018-04-08T04:07:59.874Z,74.20
2018-04-08T04:10:27.316Z,74.20
2018-04-08T04:12:54.793Z,74.00
2018-04-08T04:15:22.239Z,73.70
2018-04-08T04:17:49.703Z,74.00
2018-04-08T04:20:29.012Z,74.60
2018-04-08T04:23:09.106Z,75.00
2018-04-08T04:28:38.212Z,75.90
2018-04-08T04:31:05.679Z,76.30
2018-04-08T04:33:33.157Z,76.80
2018-04-08T04:36:01.395Z,76.40
2018-04-08T04:38:28.857Z,76.30
2018-04-08T04:40:56.325Z,76.30
2018-04-08T04:43:23.866Z,76.10
2018-04-08T04:45:51.304Z,76.40
2018-04-08T04:48:18.850Z,76.80
2018-04-08T04:50:46.299Z,77.30
2018-04-08T04:53:13.813Z,77.50
2018-04-08T04:55:41.279Z,77.50
2018-04-08T04:58:08.745Z,77.90
2018-04-08T05:00:36.950Z,78.90
2018-04-08T05:03:04.410Z,78.80
2018-04-08T05:05:31.902Z,79.60
2018-04-08T05:07:59.349Z,80.00
2018-04-08T05:10:26.804Z,80.00
2018-04-08T05:12:54.262Z,80.10
2018-04-08T05:15:21.820Z,80.00
2018-04-08T05:17:49.259Z,79.90
2018-04-08T05:20:16.707Z,80.10
2018-04-08T05:22:44.160Z,80.00
2018-04-08T05:25:11.641Z,80.10
2018-04-08T05:27:39.082Z,79.70
2018-04-08T05:30:06.565Z,79.60
2018-04-08T05:32:34.002Z,79.30
2018-04-08T05:35:01.482Z,79.10
2018-04-08T05:37:28.945Z,79.20
2018-04-08T05:39:57.196Z,79.80
2018-04-08T05:42:24.668Z,79.80
2018-04-08T05:44:52.130Z,80.00
2018-04-08T05:47:19.584Z,79.70
2018-04-08T05:49:47.026Z,80.00
2018-04-08T05:52:14.501Z,80.00
2018-04-08T05:54:41.954Z,80.30
2018-04-08T05:57:09.406Z,80.30
2018-04-08T05:59:36.881Z,80.70
2018-04-08T06:02:04.361Z,80.50
2018-04-08T06:04:32.589Z,80.70
2018-04-08T06:07:00.123Z,80.60
2018-04-08T06:09:27.585Z,79.30
2018-04-08T06:11:55.028Z,78.90
2018-04-08T06:14:22.481Z,78.70
2018-04-08T06:16:49.959Z,78.90
2018-04-08T06:19:17.410Z,79.20
2018-04-08T06:21:44.858Z,79.20
2018-04-08T06:24:12.311Z,79.10
2018-04-08T06:26:39.786Z,79.60
2018-04-08T06:29:07.279Z,79.10
2018-04-08T06:31:34.740Z,79.10
2018-04-08T06:34:02.208Z,77.80
2018-04-08T06:36:30.420Z,75.00
2018-04-08T06:38:57.897Z,75.00
2018-04-08T06:41:25.332Z,73.40
2018-04-08T06:43:52.780Z,73.00
2018-04-08T06:46:20.248Z,73.00
2018-04-08T06:48:47.692Z,73.30
2018-04-08T06:51:15.185Z,72.00
2018-04-08T06:53:42.645Z,71.10
2018-04-08T06:56:10.115Z,69.80
2018-04-08T06:58:37.574Z,69.60
2018-04-08T07:01:05.052Z,68.60
2018-04-08T07:03:32.506Z,68.50
2018-04-08T07:06:00.736Z,67.30
2018-04-08T07:08:28.204Z,67.10
2018-04-08T07:10:55.685Z,67.50
2018-04-08T07:13:23.330Z,68.00
2018-04-08T07:15:50.808Z,68.50
2018-04-08T07:18:18.263Z,68.00
2018-04-08T07:20:45.734Z,67.80
2018-04-08T07:23:13.994Z,66.90
2018-04-08T07:25:42.981Z,65.10
2018-04-08T07:28:10.427Z,65.00
2018-04-08T07:30:37.900Z,65.10
2018-04-08T07:33:05.372Z,65.60
2018-04-08T07:35:33.581Z,66.60
2018-04-08T07:38:01.163Z,66.60
2018-04-08T07:40:28.696Z,66.60
2018-04-08T07:42:56.164Z,65.70
2018-04-08T07:45:23.641Z,66.10
2018-04-08T07:47:51.106Z,65.30
2018-04-08T07:50:18.579Z,65.70
2018-04-08T07:52:46.032Z,65.20
2018-04-08T07:55:13.502Z,64.60
2018-04-08T07:57:41.722Z,63.60
2018-04-08T08:00:09.176Z,63.50
2018-04-08T08:02:36.660Z,63.30
2018-04-08T08:05:04.870Z,62.40
2018-04-08T08:07:33.127Z,60.80
2018-04-08T08:10:00.601Z,61.10
2018-04-08T08:12:28.815Z,60.50
2018-04-08T08:14:56.268Z,60.40
2018-04-08T08:17:23.716Z,60.10
2018-04-08T08:19:51.165Z,59.80
2018-04-08T08:22:18.628Z,59.90
2018-04-08T08:24:46.078Z,60.00
2018-04-08T08:27:13.550Z,58.50
2018-04-08T08:29:41.041Z,58.50
2018-04-08T08:32:08.500Z,58.30
2018-04-08T08:34:35.969Z,56.10
2018-04-08T08:37:03.417Z,55.70
2018-04-08T08:39:30.864Z,56.30
2018-04-08T08:41:58.314Z,55.10
2018-04-08T08:44:25.776Z,53.60
2018-04-08T08:46:53.213Z,53.80
2018-04-08T08:49:20.744Z,53.80
2018-04-08T08:51:48.202Z,53.10
2018-04-08T08:54:15.663Z,51.70
2018-04-08T08:56:43.102Z,48.90
2018-04-08T08:59:10.595Z,48.70
2018-04-08T09:01:38.072Z,45.40
2018-04-08T09:04:05.516Z,41.80
2018-04-08T09:06:33.128Z,43.50
2018-04-08T09:09:00.630Z,42.10
2018-04-08T09:11:28.150Z,40.10
2018-04-08T09:13:55.619Z,38.60
2018-04-08T09:16:23.082Z,37.70
2018-04-08T09:22:10.769Z,36.10
2018-04-08T09:24:39.968Z,36.40
2018-04-08T09:27:07.427Z,34.80
2018-04-08T09:29:34.954Z,35.00
2018-04-08T09:32:02.437Z,33.40
2018-04-08T09:34:29.916Z,33.00
2018-04-08T09:36:57.398Z,34.20
2018-04-08T09:39:24.881Z,32.40
2018-04-08T09:41:52.354Z,32.00
2018-04-08T09:44:19.858Z,32.50
2018-04-08T09:46:48.099Z,34.30
2018-04-08T09:49:15.582Z,34.20
2018-04-08T09:51:43.071Z,34.70
2018-04-08T09:54:10.540Z,31.90
2018-04-08T09:56:38.008Z,32.00
2018-04-08T09:59:05.483Z,29.90
2018-04-08T10:01:38.540Z,32.00
2018-04-08T10:04:06.301Z,32.60
2018-04-08T10:06:33.862Z,30.90
2018-04-08T10:09:01.328Z,30.00
2018-04-08T10:11:28.779Z,30.00
2018-04-08T10:13:56.240Z,29.80
2018-04-08T10:16:23.690Z,29.10
2018-04-08T10:18:51.133Z,28.60
2018-04-08T10:21:18.650Z,29.90
2018-04-08T10:23:46.166Z,28.60
2018-04-08T10:26:13.681Z,29.30
2018-04-08T10:28:41.311Z,29.90
2018-04-08T10:31:08.783Z,29.90
2018-04-08T10:33:36.252Z,28.80
2018-04-08T10:36:03.779Z,27.70
2018-04-08T10:38:32.063Z,28.70
2018-04-08T10:40:59.574Z,28.90
2018-04-08T10:43:27.769Z,28.00
2018-04-08T10:45:55.258Z,27.90
2018-04-08T10:48:22.833Z,27.80
2018-04-08T10:50:50.303Z,28.20
2018-04-08T10:53:18.538Z,26.10
2018-04-08T10:55:46.004Z,26.10
2018-04-08T10:58:13.516Z,28.30
2018-04-08T11:00:41.737Z,26.80
2018-04-08T11:03:09.208Z,26.80
2018-04-08T11:05:36.764Z,26.90
2018-04-08T11:08:04.326Z,26.20
2018-04-08T11:10:31.799Z,26.40
2018-04-08T11:13:00.039Z,25.80
2018-04-08T11:15:27.504Z,25.70
2018-04-08T11:17:54.983Z,27.50
2018-04-08T11:20:23.235Z,26.10
2018-04-08T11:22:50.686Z,26.10
2018-04-08T11:25:18.139Z,25.90
2018-04-08T11:27:45.706Z,26.30
2018-04-08T11:30:13.156Z,25.50
2018-04-08T11:32:40.647Z,25.90
2018-04-08T11:35:08.942Z,24.90
2018-04-08T11:37:36.438Z,24.80
2018-04-08T11:40:03.882Z,26.00
2018-04-08T11:42:31.382Z,26.40
2018-04-08T11:44:58.882Z,25.80
2018-04-08T11:47:26.330Z,26.60
2018-04-08T11:49:53.824Z,26.50
2018-04-08T11:52:22.022Z,27.90
2018-04-08T11:54:51.007Z,29.10
2018-04-08T11:57:18.503Z,29.10
2018-04-08T11:59:46.858Z,28.90
2018-04-08T12:02:15.108Z,29.30
2018-04-08T12:04:43.381Z,30.00
2018-04-08T12:07:10.881Z,30.00
2018-04-08T12:09:39.098Z,29.90
2018-04-08T12:12:06.571Z,29.90
2018-04-08T12:14:34.072Z,33.80
2018-04-08T12:17:02.609Z,31.90
2018-04-08T12:19:30.107Z,32.00
2018-04-08T12:21:57.574Z,30.30
2018-04-08T12:24:25.805Z,28.70
2018-04-08T12:26:55.864Z,28.70
2018-04-08T12:29:24.103Z,28.20
2018-04-08T12:31:51.604Z,28.20
2018-04-08T12:34:19.077Z,28.40
2018-04-08T12:36:46.607Z,29.30
2018-04-08T12:39:14.030Z,27.50
2018-04-08T12:41:41.553Z,27.60
2018-04-08T12:44:09.068Z,26.80
2018-04-08T12:46:36.587Z,27.50
2018-04-08T12:49:04.041Z,25.70
2018-04-08T12:51:31.761Z,26.50
2018-04-08T12:54:00.008Z,26.80
2018-04-08T12:56:27.558Z,26.70
2018-04-08T12:58:55.042Z,25.70
2018-04-08T13:01:23.332Z,25.10
2018-04-08T13:03:50.809Z,25.20
2018-04-08T13:06:18.308Z,25.90
2018-04-08T13:08:45.806Z,26.60
2018-04-08T13:11:13.296Z,25.90
2018-04-08T13:13:40.840Z,27.20
2018-04-08T13:16:08.308Z,28.10
2018-04-08T13:18:35.809Z,28.80
2018-04-08T13:21:03.277Z,28.10
2018-04-08T13:23:31.524Z,28.30
2018-04-08T13:25:59.018Z,28.20
2018-04-08T13:28:27.256Z,29.90
2018-04-08T13:30:54.722Z,29.70
2018-04-08T13:33:22.192Z,29.30
2018-04-08T13:35:49.681Z,27.40
2018-04-08T13:38:17.171Z,28.10
2018-04-08T13:40:45.584Z,28.50
2018-04-08T13:43:13.820Z,27.80
2018-04-08T13:45:41.301Z,27.70
2018-04-08T13:48:08.760Z,28.50
2018-04-08T13:50:36.201Z,29.10
2018-04-08T13:53:03.694Z,28.20
2018-04-08T13:55:31.932Z,29.00
2018-04-08T13:57:59.625Z,28.90
2018-04-08T14:00:27.132Z,28.90
2018-04-08T14:02:54.620Z,28.80
2018-04-08T14:05:22.072Z,29.70
2018-04-08T14:07:49.607Z,28.70
2018-04-08T14:10:17.052Z,28.70
2018-04-08T14:12:44.528Z,31.80
2018-04-08T14:15:12.005Z,29.30
2018-04-08T14:17:39.441Z,29.70
2018-04-08T14:20:06.904Z,31.80
2018-04-08T14:22:34.390Z,31.00
2018-04-08T14:25:01.844Z,29.70
2018-04-08T14:27:29.303Z,32.80
2018-04-08T14:29:56.805Z,32.60
2018-04-08T14:32:24.253Z,31.20
2018-04-08T14:34:51.712Z,31.70
2018-04-08T14:37:19.175Z,32.10
2018-04-08T14:39:46.620Z,32.30
2018-04-08T14:42:14.061Z,32.00
2018-04-08T14:44:42.297Z,33.10
2018-04-08T14:47:09.760Z,33.10
2018-04-08T14:49:37.207Z,33.80
2018-04-08T14:52:04.745Z,31.70
2018-04-08T14:54:32.240Z,31.10
2018-04-08T14:56:59.695Z,31.40
2018-04-08T14:59:27.152Z,31.30
2018-04-08T15:01:54.630Z,30.20
2018-04-08T15:04:22.848Z,31.00
2018-04-08T15:06:50.324Z,31.00
2018-04-08T15:09:17.782Z,31.40
2018-04-08T15:11:45.233Z,29.40
2018-04-08T15:14:12.719Z,29.50
2018-04-08T15:16:40.206Z,29.40
2018-04-08T15:19:08.414Z,30.80
2018-04-08T15:21:35.904Z,30.00
2018-04-08T15:24:03.348Z,30.90
2018-04-08T15:26:30.815Z,29.40
2018-04-08T15:28:58.279Z,29.90
2018-04-08T15:31:25.730Z,30.00
2018-04-08T15:33:53.168Z,30.30
2018-04-08T15:36:20.622Z,30.00
2018-04-08T15:38:48.096Z,30.40
2018-04-08T15:41:15.576Z,32.00
2018-04-08T15:43:43.785Z,32.10
2018-04-08T15:46:11.247Z,32.10
2018-04-08T15:48:38.766Z,31.70
2018-04-08T15:51:06.949Z,29.90
2018-04-08T15:53:35.164Z,29.90
2018-04-08T15:56:02.631Z,29.90
2018-04-08T15:58:30.101Z,29.90
2018-04-08T16:00:57.565Z,32.90
2018-04-08T16:03:25.030Z,29.00
2018-04-08T16:05:52.486Z,30.00
2018-04-08T16:08:19.977Z,29.90
2018-04-08T16:10:47.436Z,32.10
2018-04-08T16:13:14.878Z,30.50
2018-04-08T16:15:43.135Z,28.70
2018-04-08T16:18:11.371Z,29.90
2018-04-08T16:20:38.845Z,29.80
2018-04-08T16:23:06.316Z,28.50
2018-04-08T16:25:33.783Z,28.60
2018-04-08T16:28:02.017Z,30.20
2018-04-08T16:30:30.241Z,30.60
2018-04-08T16:32:58.481Z,29.40
2018-04-08T16:35:25.916Z,29.20
2018-04-08T16:37:53.405Z,28.80
2018-04-08T16:40:20.853Z,30.00
2018-04-08T16:42:48.306Z,29.10
2018-04-08T16:45:15.791Z,29.70
2018-04-08T16:47:44.023Z,29.60
2018-04-08T16:50:11.496Z,29.20
2018-04-08T16:52:38.955Z,29.80
2018-04-08T16:55:06.425Z,29.40
2018-04-08T16:57:33.890Z,29.60
2018-04-08T17:00:01.348Z,29.80
2018-04-08T17:02:29.564Z,30.10
2018-04-08T17:04:57.156Z,29.60
2018-04-08T17:07:24.623Z,29.70
2018-04-08T17:09:52.103Z,30.10
2018-04-08T17:12:20.334Z,30.70
2018-04-08T17:14:47.800Z,30.60
2018-04-08T17:17:15.299Z,29.50
2018-04-08T17:19:43.528Z,29.90
2018-04-08T17:22:10.996Z,29.90
2018-04-08T17:24:38.465Z,31.70
2018-04-08T17:27:05.916Z,30.80
2018-04-08T17:29:33.373Z,32.50
2018-04-08T17:32:00.854Z,33.40
2018-04-08T17:34:29.061Z,31.00
2018-04-08T17:36:56.510Z,31.00
2018-04-08T17:39:23.998Z,32.80
2018-04-08T17:41:51.439Z,32.50
2018-04-08T17:44:18.920Z,32.50
2018-04-08T17:46:46.359Z,37.80
2018-04-08T17:49:13.842Z,38.70
2018-04-08T17:51:41.321Z,40.90
2018-04-08T17:54:09.535Z,42.80
2018-04-08T17:56:37.026Z,42.60
2018-04-08T17:59:04.470Z,40.40
2018-04-08T18:01:32.158Z,43.70
2018-04-08T18:03:59.637Z,44.80
2018-04-08T18:06:27.981Z,44.80
2018-04-08T18:08:55.412Z,44.80
2018-04-08T18:11:22.880Z,45.30
2018-04-08T18:13:50.369Z,45.00
2018-04-08T18:16:18.618Z,45.10
2018-04-08T18:18:46.106Z,45.10
2018-04-08T18:21:14.324Z,46.70
2018-04-08T18:23:41.770Z,46.60
2018-04-08T18:26:09.265Z,46.80
2018-04-08T18:28:36.754Z,46.30
2018-04-08T18:31:05.069Z,47.40
2018-04-08T18:33:32.511Z,47.80
2018-04-08T18:36:00.017Z,47.80
2018-04-08T18:38:27.470Z,49.20
2018-04-08T18:40:54.932Z,49.50
2018-04-08T18:43:22.489Z,50.00
2018-04-08T18:45:49.934Z,50.90
2018-04-08T18:48:17.422Z,50.10
2018-04-08T18:50:44.889Z,51.60
2018-04-08T18:53:12.352Z,52.50
2018-04-08T18:55:39.797Z,52.40
2018-04-08T18:58:07.273Z,53.60
2018-04-08T19:00:35.511Z,53.60
2018-04-08T19:03:03.087Z,53.60
2018-04-08T19:05:30.641Z,54.00
2018-04-08T19:07:58.090Z,54.20
2018-04-08T19:10:25.554Z,55.50
2018-04-08T19:12:53.021Z,56.10
2018-04-08T19:15:23.758Z,56.10
2018-04-08T19:17:57.666Z,56.10
2018-04-08T19:20:25.944Z,57.10
2018-04-08T19:22:54.183Z,57.00
2018-04-08T19:25:21.648Z,57.00
2018-04-08T19:27:50.615Z,56.90
2018-04-08T19:30:21.948Z,56.80
2018-04-08T19:32:49.441Z,56.50
2018-04-08T19:35:16.904Z,57.60
2018-04-08T19:37:44.499Z,57.20
2018-04-08T19:40:12.849Z,54.60
2018-04-08T19:42:40.409Z,54.60
2018-04-08T19:45:07.870Z,59.90
2018-04-08T19:47:35.370Z,57.10
2018-04-08T19:50:02.811Z,54.00
2018-04-08T19:52:30.314Z,56.00
2018-04-08T19:54:57.784Z,57.60
2018-04-08T19:57:25.332Z,55.00
2018-04-08T19:59:52.803Z,56.40
2018-04-08T20:02:20.311Z,55.90
2018-04-08T20:04:47.768Z,55.50
2018-04-08T20:07:15.218Z,55.40
2018-04-08T20:09:42.756Z,55.20
2018-04-08T20:12:10.996Z,55.00
2018-04-08T20:14:38.443Z,54.90
2018-04-08T20:17:05.996Z,54.90
2018-04-08T20:19:33.502Z,54.90
2018-04-08T20:22:01.742Z,55.50
2018-04-08T20:24:29.196Z,55.50
2018-04-08T20:26:56.675Z,56.00
2018-04-08T20:29:24.182Z,55.80
2018-04-08T20:31:51.640Z,55.80
2018-04-08T20:34:19.073Z,57.20
2018-04-08T20:36:47.420Z,56.70
2018-04-08T20:39:14.984Z,56.30
2018-04-08T20:41:42.546Z,56.80
2018-04-08T20:44:10.016Z,57.20
2018-04-08T20:46:38.253Z,57.80
2018-04-08T20:49:05.735Z,57.80
2018-04-08T20:51:33.273Z,58.00
2018-04-08T20:54:00.725Z,58.30
2018-04-08T20:56:28.268Z,58.40
2018-04-08T20:58:56.558Z,58.30
2018-04-08T21:01:24.040Z,58.10
2018-04-08T21:03:51.490Z,58.10
2018-04-08T21:06:19.053Z,58.00
2018-04-08T21:08:46.618Z,58.50
2018-04-08T21:11:14.153Z,58.40
2018-04-08T21:13:41.711Z,58.40
2018-04-08T21:16:09.177Z,58.00
2018-04-08T21:18:36.643Z,58.30
2018-04-08T21:21:04.106Z,58.40
2018-04-08T21:23:31.637Z,58.30
2018-04-08T21:25:59.109Z,58.40
2018-04-08T21:28:26.653Z,58.30
2018-04-08T21:30:54.128Z,58.70
2018-04-08T21:33:21.628Z,59.90
2018-04-08T21:35:49.052Z,60.90
2018-04-08T21:38:16.864Z,61.90
2018-04-08T21:40:44.327Z,62.80
2018-04-08T21:43:11.815Z,63.20
2018-04-08T21:45:39.283Z,64.30
2018-04-08T21:48:07.502Z,66.70
2018-04-08T21:50:34.994Z,66.60
2018-04-08T21:53:02.436Z,67.50
2018-04-08T21:55:29.910Z,68.70
2018-04-08T21:57:57.395Z,69.70
2018-04-08T22:00:25.640Z,71.00
2018-04-08T22:02:53.125Z,70.10
2018-04-08T22:05:20.675Z,70.30
2018-04-08T22:07:48.227Z,69.30
2018-04-08T22:10:15.793Z,69.40
2018-04-08T22:12:43.268Z,69.20
2018-04-08T22:15:11.494Z,70.80
2018-04-08T22:17:39.075Z,70.80
2018-04-08T22:20:06.539Z,71.00
2018-04-08T22:22:33.979Z,71.70
2018-04-08T22:25:01.561Z,70.60
2018-04-08T22:27:29.012Z,70.30
2018-04-08T22:29:56.482Z,70.00
2018-04-08T22:32:24.706Z,70.70
2018-04-08T22:34:52.146Z,69.60
2018-04-08T22:37:19.760Z,69.70
2018-04-08T22:39:47.211Z,69.60
2018-04-08T22:42:14.643Z,69.60
2018-04-08T22:44:42.750Z,70.10
2018-04-08T22:47:10.212Z,69.60
2018-04-08T22:49:37.751Z,70.00
2018-04-08T22:52:05.228Z,70.50
2018-04-08T22:54:33.436Z,70.00
2018-04-08T22:57:00.929Z,69.90
2018-04-08T22:59:28.394Z,71.90
2018-04-08T23:01:55.840Z,71.30
2018-04-08T23:04:23.352Z,70.50
2018-04-08T23:06:51.554Z,71.60
2018-04-08T23:09:19.022Z,71.60
2018-04-08T23:11:46.536Z,71.40
2018-04-08T23:14:14.730Z,71.30
2018-04-08T23:16:42.221Z,71.20
2018-04-08T23:19:09.730Z,71.90
2018-04-08T23:21:37.932Z,72.60
2018-04-08T23:24:05.379Z,72.60
2018-04-08T23:26:33.786Z,72.80
2018-04-08T23:29:01.248Z,73.50
2018-04-08T23:31:28.804Z,73.80
2018-04-08T23:33:56.297Z,74.60
2018-04-08T23:36:24.505Z,75.00
2018-04-08T23:38:51.956Z,74.80
2018-04-08T23:41:19.437Z,75.50
2018-04-08T23:43:46.911Z,75.30
2018-04-08T23:46:14.486Z,75.30
2018-04-08T23:48:41.965Z,75.40
2018-04-08T23:51:10.170Z,76.60
2018-04-08T23:53:37.636Z,76.40
2018-04-08T23:56:05.101Z,77.40
2018-04-08T23:58:32.541Z,77.90
